KAPF/APF METAR and TAF weather

Enter ICAO airport designator
Station Type Date Time Source
KAPF METAR 2022/07/03 13:53 UTC NOAA

KAPF 031353Z 10006KT 10SM CLR 29/23 A3009 RMK AO2 SLP188 T02940233


Station Type Date Time Source
KAPF Decoded METAR 2022/07/03 13:53 UTC NOAA

NAPLES MUNICIPAL AIRPORT, FL, United States (KAPF) 26-09N 081-46W
Jul 03, 2022 - 09:53 AM EDT / 2022.07.03 1353 UTC
Wind: from the E (100 degrees) at 7 MPH (6 KT):0
Visibility: 10 mile(s):0
Sky conditions: clear
Temperature: 84.9 F (29.4 C)
Dew Point: 73.9 F (23.3 C)
Relative Humidity: 69%
Pressure (altimeter): 30.09 in. Hg (1018 hPa)
ob: KAPF 031353Z 10006KT 10SM CLR 29/23 A3009 RMK AO2 SLP188 T02940233
cycle: 14

Station Type Date Time Source
KAPF TAF 2022/07/03 12:22 UTC NOAA

TAF KAPF 031120Z 0312/0412 12008KT P6SM FEW035 SCT050
FM031800 27010KT P6SM VCTS SCT035CB BKN050
TEMPO 0321/0401 VRB15G25KT 2SM TSRA SCT015 BKN025CB OVC050
FM040100 VRB05KT P6SM VCSH FEW025 SCT080 BKN120
FM040300 VRB03KT P6SM FEW025 SCT250

Example: see airport list